Latest Coastal Weather Observations for Gold Coast Seaway

IDQ60701

Issued at 7:45 pm EST Friday 25 April 2014 (issued every 10 minutes, with the page automatically refreshed every 10 minutes)

About coastal observations | Map of coastal stations | Coastal observations for QLD | Marine services | Other Formats
Station Details ID: 040764 Name: GOLD COAST SEAWAY Lat: -27.94 Lon: 153.43 Height: 2.98 m
Data from the previous 72 hours. | See also: Recent months at Gold Coast Seaway
Date/Time
EST
Temp

°C
Wind Pressure Rain
since 9am
mm
Weather Cloud Vis
km
Sea
Height
m
Swell
Dir
 
Speed
knots
Gust
knots
hPa Trend Height
m
Period
s
Dir
25/07:30pm 23.8 SSE 15 20 1018.7 - 0.0 - - - - - - -
25/07:00pm 23.7 SE 15 17 1018.5 - 0.0 - - - - - - -
25/06:30pm 23.9 SE 17 19 1018.1 - 0.0 - - - - - - -
25/06:00pm 23.9 SE 17 21 1017.5 - 0.0 - - - - - - -
25/05:30pm 23.7 SE 14 17 1017.3 - 0.0 - - - - - - -
25/05:00pm 24.2 SSE 15 18 1016.9 - 0.0 - - - - - - -
25/04:30pm 24.9 SSE 16 20 1016.5 - 0.0 - - - - - - -
25/04:00pm 25.3 SSE 15 18 1016.3 - 0.0 - - - - - - -
25/03:30pm 25.1 SE 17 19 1016.3 - 0.0 - - - - - - -
25/03:00pm 25.4 SE 16 18 1016.3 - 0.0 - - - - - - -
25/02:30pm 26.2 ESE 13 15 1016.3 - 0.0 - - - - - - -
25/02:00pm 26.3 ESE 12 14 1016.3 - 0.0 - - - - - - -
25/01:30pm 26.7 ESE 10 12 1016.5 - 0.0 - - - - - - -
25/01:00pm 26.6 SE 9 10 1016.8 - 0.0 - - - - - - -
25/12:30pm 27.2 SE 8 9 1017.2 - 0.0 - - - - - - -
25/12:00pm 27.2 SE 7 8 1017.6 - 0.0 - - - - - - -
25/11:30am 26.7 SE 6 7 1017.9 - 0.0 - - - - - - -
25/11:00am 26.4 SE 6 7 1018.3 - 0.0 - - - - - - -
25/10:30am 25.9 SSE 5 5 1018.6 - 0.0 - - - - - - -
25/10:00am 25.5 SSE 5 5 1018.7 - 0.0 - - - - - - -
25/09:30am 25.5 SSE 2 4 1018.9 - 0.0 - - - - - - -
25/09:00am 23.6 SSW 4 5 1018.9 - 0.0 - - - - - - -
25/08:30am 22.7 SW 4 6 1018.9 - 0.0 - - - - - - -
25/08:00am 21.7 WSW 5 6 1018.4 - 0.0 - - - - - - -
25/07:30am 20.2 WSW 4 6 1017.8 - 0.0 - - - - - - -
25/07:00am 19.2 W 5 6 1017.3 - 0.0 - - - - - - -
25/06:30am 18.4 W 6 8 1017.0 - 0.0 - - - - - - -
25/06:00am 18.3 SW 7 8 1016.5 - 0.0 - - - - - - -
25/05:30am 18.3 SW 6 8 1016.2 - 0.0 - - - - - - -
25/05:00am 18.4 SW 5 6 1015.9 - 0.0 - - - - - - -
25/04:30am 18.5 SW 6 7 1015.6 - 0.0 - - - - - - -
25/04:00am 18.9 WSW 5 5 1015.5 - 0.0 - - - - - - -
25/03:30am 19.0 WSW 5 6 1015.4 - 0.0 - - - - - - -
25/03:00am 19.1 WSW 4 5 1015.5 - 0.0 - - - - - - -
25/02:30am 19.3 WSW 5 6 1015.4 - 0.0 - - - - - - -
25/02:00am 19.4 WSW 5 6 1015.7 - 0.0 - - - - - - -
25/01:30am 19.2 WSW 4 5 1016.0 - 0.0 - - - - - - -
25/01:00am 19.7 WSW 5 6 1016.2 - 0.0 - - - - - - -
25/12:30am 20.0 WSW 6 7 1016.4 - 0.0 - - - - - - -
25/12:00am 20.2 WSW 6 6 1016.4 - 0.0 - - - - - - -
 
Date/Time
EST
Temp

°C
Wind Pressure Rain
since 9am
mm
Weather Cloud Vis
km
Sea
Height
m
Swell
Dir
 
Speed
knots
Gust
knots
hPa Trend Height
m
Period
s
Dir
24/11:30pm 20.1 SW 5 6 1016.3 - 0.0 - - - - - - -
24/11:00pm 20.2 SW 6 7 1016.4 - 0.0 - - - - - - -
24/10:30pm 20.5 SW 6 7 1016.6 - 0.0 - - - - - - -
24/10:00pm 20.8 WSW 5 6 1016.5 - 0.0 - - - - - - -
24/09:30pm 21.4 WNW 5 6 1016.7 - 0.0 - - - - - - -
24/09:00pm 21.6 WNW 5 6 1016.6 - 0.0 - - - - - - -
24/08:30pm 21.6 NW 4 5 1016.4 - 0.0 - - - - - - -
24/08:00pm 22.4 NW 5 5 1016.2 - 0.0 - - - - - - -
24/07:30pm 23.0 N 6 8 1015.8 - 0.0 - - - - - - -
24/07:00pm 23.5 NNE 8 9 1015.6 - 0.0 - - - - - - -
24/06:30pm 23.7 NE 9 10 1015.1 - 0.0 - - - - - - -
24/06:00pm 23.6 NNE 10 12 1015.0 - 0.0 - - - - - - -
24/05:30pm 24.0 NNE 11 14 1014.9 - 0.0 - - - - - - -
24/05:00pm 24.2 NNE 10 13 1014.6 - 0.0 - - - - - - -
24/04:30pm 24.8 NE 13 15 1014.3 - 0.0 - - - - - - -
24/04:00pm 25.5 NNE 12 14 1013.7 - 0.0 - - - - - - -
24/03:30pm 25.8 NE 12 14 1013.6 - 0.0 - - - - - - -
24/03:00pm 26.3 NE 13 15 1013.7 - 0.0 - - - - - - -
24/02:30pm 26.6 NE 14 16 1013.9 - 0.0 - - - - - - -
24/02:00pm 26.5 NE 14 16 1013.9 - 0.0 - - - - - - -
24/01:30pm 26.7 NE 14 16 1014.1 - 0.0 - - - - - - -
24/01:00pm 27.0 NE 12 13 1014.4 - 0.0 - - - - - - -
24/12:30pm 27.4 NE 12 14 1014.8 - 0.0 - - - - - - -
24/12:00pm 27.6 NE 11 13 1015.2 - 0.0 - - - - - - -
24/11:30am 27.6 NE 8 9 1015.4 - 0.0 - - - - - - -
24/11:00am 27.5 NNE 7 9 1016.1 - 0.0 - - - - - - -
24/10:30am 27.0 NNE 8 9 1016.9 - 0.0 - - - - - - -
24/10:00am 25.9 NNE 9 10 1017.4 - 0.0 - - - - - - -
24/09:30am 24.2 NW 5 6 1017.5 - 0.0 - - - - - - -
24/09:00am 23.3 NW 7 8 1017.5 - 0.0 - - - - - - -
24/08:30am 22.2 NW 7 8 1017.4 - 0.0 - - - - - - -
24/08:00am 21.0 NW 7 7 1017.4 - 0.0 - - - - - - -
24/07:30am 20.2 WNW 6 7 1016.7 - 0.0 - - - - - - -
24/07:00am 19.0 WNW 6 7 1016.4 - 0.0 - - - - - - -
24/06:30am 18.2 WNW 6 7 1016.1 - 0.0 - - - - - - -
24/06:00am 18.2 W 6 7 1015.9 - 0.0 - - - - - - -
24/05:30am 17.9 WSW 5 6 1015.9 - 0.0 - - - - - - -
24/05:00am 18.2 SW 5 7 1015.8 - 0.0 - - - - - - -
24/04:30am 18.4 SW 6 7 1015.7 - 0.0 - - - - - - -
24/04:00am 18.5 W 6 7 1015.8 - 0.0 - - - - - - -
24/03:30am 18.4 WSW 5 6 1015.7 - 0.0 - - - - - - -
24/03:00am 18.7 WSW 5 5 1015.6 - 0.0 - - - - - - -
24/02:30am 18.9 WSW 5 6 1015.8 - 0.0 - - - - - - -
24/02:00am 19.0 WSW 5 6 1015.9 - 0.0 - - - - - - -
24/01:30am 19.1 WSW 5 6 1016.2 - 0.0 - - - - - - -
24/01:00am 19.2 WSW 5 7 1016.6 - 0.0 - - - - - - -
24/12:30am 19.1 W 4 5 1016.9 - 0.0 - - - - - - -
24/12:00am 19.3 WNW 6 6 1017.2 - 0.0 - - - - - - -
 
Date/Time
EST
Temp

°C
Wind Pressure Rain
since 9am
mm
Weather Cloud Vis
km
Sea
Height
m
Swell
Dir
 
Speed
knots
Gust
knots
hPa Trend Height
m
Period
s
Dir
23/11:30pm 19.0 WNW 5 6 1017.6 - 0.0 - - - - - - -
23/11:00pm 19.3 WSW 5 6 1017.7 - 0.0 - - - - - - -
23/10:30pm 20.0 SW 4 5 1017.8 - 0.0 - - - - - - -
23/10:00pm 20.2 SW 5 6 1017.8 - 0.0 - - - - - - -
23/09:30pm 20.8 WSW 4 5 1017.7 - 0.0 - - - - - - -
23/09:00pm 21.1 W 6 7 1017.6 - 0.0 - - - - - - -
23/08:30pm 21.3 WNW 5 6 1017.5 - 0.0 - - - - - - -
23/08:00pm 22.2 NW 6 7 1017.5 - 0.0 - - - - - - -
23/07:30pm 22.9 N 8 12 1017.1 - 0.0 - - - - - - -
23/07:00pm 23.6 N 13 16 1017.0 - 0.0 - - - - - - -
23/06:30pm 23.5 NNE 14 16 1016.8 - 0.0 - - - - - - -
23/06:00pm 23.6 NNE 14 16 1016.4 - 0.0 - - - - - - -
23/05:30pm 23.7 NNE 14 16 1016.2 - 0.0 - - - - - - -
23/05:00pm 24.1 NNE 14 15 1015.9 - 0.0 - - - - - - -
23/04:30pm 24.8 NNE 14 15 1015.6 - 0.0 - - - - - - -
23/04:00pm 25.4 NNE 14 16 1015.5 - 0.0 - - - - - - -
23/03:30pm 26.0 NNE 14 16 1015.6 - 0.0 - - - - - - -
23/03:00pm 26.2 NNE 15 17 1015.5 - 0.0 - - - - - - -
23/02:30pm 26.9 NNE 14 16 1015.6 - 0.0 - - - - - - -
23/02:00pm 26.7 NNE 15 17 1015.7 - 0.0 - - - - - - -
23/01:30pm 26.8 NE 14 16 1015.9 - 0.0 - - - - - - -
23/01:00pm 27.1 NE 14 15 1016.1 - 0.0 - - - - - - -
23/12:30pm 27.5 NNE 12 14 1016.5 - 0.0 - - - - - - -
23/12:00pm 28.2 NNE 9 11 1017.1 - 0.0 - - - - - - -
23/11:30am 27.9 N 9 12 1017.7 - 0.0 - - - - - - -
23/11:00am 27.4 NW 7 10 1018.2 - 0.0 - - - - - - -
23/10:30am 26.4 NW 7 9 1018.5 - 0.0 - - - - - - -
23/10:00am 25.8 NW 9 12 1019.0 - 0.0 - - - - - - -
23/09:30am 25.0 NW 8 10 1019.3 - 0.0 - - - - - - -
23/09:00am 23.9 NW 6 8 1019.4 - 0.0 - - - - - - -
23/08:30am 22.5 W 4 5 1019.6 - 0.0 - - - - - - -
23/08:00am 20.8 WSW 4 5 1019.5 - 0.0 - - - - - - -
23/07:30am 19.1 WSW 5 6 1019.5 - 0.0 - - - - - - -
23/07:00am 18.1 W 5 5 1019.3 - 0.0 - - - - - - -
23/06:30am 17.6 W 5 6 1019.1 - 0.0 - - - - - - -
23/06:00am 17.9 WSW 5 7 1018.9 - 0.0 - - - - - - -
23/05:30am 17.8 WSW 5 6 1018.8 - 0.0 - - - - - - -
23/05:00am 17.8 WSW 5 6 1018.5 - 0.0 - - - - - - -
23/04:30am 18.0 WSW 6 7 1018.3 - 0.0 - - - - - - -
23/04:00am 18.2 W 5 7 1017.9 - 0.0 - - - - - - -
23/03:30am 18.2 W 6 6 1018.0 - 0.0 - - - - - - -
23/03:00am 18.4 W 5 6 1018.1 - 0.0 - - - - - - -
23/02:30am 18.4 W 5 6 1018.2 - 0.0 - - - - - - -
23/02:00am 18.5 W 6 6 1018.5 - 0.0 - - - - - - -
23/01:30am 18.8 W 5 6 1018.7 - 0.0 - - - - - - -
23/01:00am 18.8 WNW 5 6 1018.9 - 0.0 - - - - - - -
23/12:30am 18.9 WNW 6 7 1019.0 - 0.0 - - - - - - -
23/12:00am 19.2 W 6 7 1019.0 - 0.0 - - - - - - -
 
Date/Time
EST
Temp

°C
Wind Pressure Rain
since 9am
mm
Weather Cloud Vis
km
Sea
Height
m
Swell
Dir
 
Speed
knots
Gust
knots
hPa Trend Height
m
Period
s
Dir
22/11:30pm 19.2 W 5 6 1019.1 - 0.0 - - - - - - -
22/11:00pm 19.3 WSW 5 6 1019.4 - 0.0 - - - - - - -
22/10:30pm 19.5 W 6 7 1019.6 - 0.0 - - - - - - -
22/10:00pm 19.9 W 5 6 1019.7 - 0.0 - - - - - - -
22/09:30pm 20.0 WNW 5 6 1019.7 - 0.0 - - - - - - -
22/09:00pm 20.1 WNW 5 6 1019.7 - 0.0 - - - - - - -
22/08:30pm 21.0 WNW 5 6 1019.8 - 0.0 - - - - - - -
22/08:00pm 21.6 WNW 5 6 1019.7 - 0.0 - - - - - - -

Other Formats:

Comma delimited format used in spreadsheet applications
http://www.bom.gov.au/fwo/IDQ60701/IDQ60701.94580.axf

JavaScript Object Notation format (JSON) in row-major order
http://www.bom.gov.au/fwo/IDQ60701/IDQ60701.94580.json